Fontana — 9HA4422 — position and weather

sailwx.info

Track history (hours):
 
Tides and Currents Weather Stations Pressure Air Temp Water Temp Dewpoint Dewpoint Depression Visibility Wind Speed Wind Dir Waves Ship Positions

Fontana

Last reported at 2018-May-24 21:30 UTC. Time now 2018-May-24 21:44 UTC.
Position N 44°20' E 037°30'.

Length 274 m; draft 9.3 m.

Type: Tanker. MMSI: 249896000.

Date/timePositionNaut miles runAvg speedWind from/ knotsBaromVisibWave heightAir tempDewpointWater temp
2018-May-24 21:30N 44°20' E 037°30'0 0.3
2018-May-24 20:58N 44°20' E 037°30'0 0.3
2018-May-24 20:28N 44°20' E 037°30'0 0.3
2018-May-24 20:00N 44°20' E 037°30'0 0.2
2018-May-24 19:30N 44°20' E 037°30'0 0.2
2018-May-24 19:00N 44°20' E 037°30'0 0.1
2018-May-24 18:24N 44°20' E 037°30'0 0.1
2018-May-24 18:00N 44°20' E 037°30'0 0.0
2018-May-24 17:30N 44°20' E 037°30'0 0.1
2018-May-24 16:55N 44°20' E 037°30'0 0.1
2018-May-24 16:30N 44°20' E 037°30'0 0.2
2018-May-24 15:52N 44°20' E 037°30'0 0.3
2018-May-24 15:28N 44°20' E 037°30'0 0.4
2018-May-24 15:00N 44°20' E 037°31'0 0.4
2018-May-24 14:30N 44°20' E 037°31'0 0.4
2018-May-24 13:58N 44°19' E 037°31'0 0.5
2018-May-24 13:30N 44°19' E 037°31'2 0.5
2018-May-24 09:00N 44°18' E 037°34'0 0.5
2018-May-24 08:19N 44°19' E 037°34'0 0.5
2018-May-24 07:59N 44°19' E 037°35'0 0.5
2018-May-24 07:28N 44°19' E 037°35'0 0.4
2018-May-24 06:55N 44°19' E 037°35'0 0.5
2018-May-24 06:27N 44°19' E 037°35'0 0.4
2018-May-24 05:59N 44°19' E 037°36'0 0.3
2018-May-24 05:25N 44°19' E 037°36'0 0.2
2018-May-24 04:59N 44°19' E 037°36'0 0.2
2018-May-24 04:27N 44°19' E 037°36'0 0.2
2018-May-24 04:00N 44°19' E 037°36'0 0.2
2018-May-24 03:30N 44°19' E 037°36'0 0.2
2018-May-24 03:00N 44°19' E 037°36'0 0.2
2018-May-24 02:30N 44°19' E 037°35'0 0.2
2018-May-24 02:00N 44°19' E 037°35'0 0.2
2018-May-24 01:30N 44°19' E 037°35'1 1.3
2018-May-24 01:00N 44°20' E 037°36'4 6.9
2018-May-24 00:29N 44°23' E 037°33'  
2018-May-19 18:23N 39°48' E 025°56'0 0.1
2018-May-19 17:59N 39°48' E 025°56'0 0.1
2018-May-19 17:29N 39°48' E 025°56'  
2018-May-15 02:59N 44°21' E 013°48'4 7.9
2018-May-15 02:30N 44°24' E 013°45'4 8.1
2018-May-15 02:00N 44°28' E 013°42'4 8.2
2018-May-15 01:30N 44°31' E 013°39'5 8.4
2018-May-15 00:55N 44°35' E 013°35'3 8.3
2018-May-15 00:30N 44°38' E 013°32'4 8.3
2018-May-15 00:00N 44°42' E 013°29'4 8.7
2018-May-14 23:30N 44°45' E 013°25'4 8.7
2018-May-14 23:00N 44°49' E 013°22'4 8.5
2018-May-14 22:30N 44°52' E 013°19'4 7.9
2018-May-14 22:00N 44°56' E 013°16'4 7.5
2018-May-14 21:30N 44°59' E 013°13'  
Track history (hours):
 
Tides and Currents Weather Stations Pressure Air Temp Water Temp Dewpoint Dewpoint Depression Visibility Wind Speed Wind Dir Waves Ship Positions

Fontana

Last reported at 2018-May-24 21:30 UTC. Time now 2018-May-24 21:44 UTC.
Position N 44°20' E 037°30'.

Length 274 m; draft 9.3 m.

Type: Tanker. MMSI: 249896000.

Date/timePositionNaut miles runAvg speedWind from/ knotsBaromVisibWave heightAir tempDewpointWater temp
2018-May-24 21:30N 44°20' E 037°30'0 0.3
2018-May-24 20:58N 44°20' E 037°30'0 0.3
2018-May-24 20:28N 44°20' E 037°30'0 0.3
2018-May-24 20:00N 44°20' E 037°30'0 0.2
2018-May-24 19:30N 44°20' E 037°30'0 0.2
2018-May-24 19:00N 44°20' E 037°30'0 0.1
2018-May-24 18:24N 44°20' E 037°30'0 0.1
2018-May-24 18:00N 44°20' E 037°30'0 0.0
2018-May-24 17:30N 44°20' E 037°30'0 0.1
2018-May-24 16:55N 44°20' E 037°30'0 0.1
2018-May-24 16:30N 44°20' E 037°30'0 0.2
2018-May-24 15:52N 44°20' E 037°30'0 0.3
2018-May-24 15:28N 44°20' E 037°30'0 0.4
2018-May-24 15:00N 44°20' E 037°31'0 0.4
2018-May-24 14:30N 44°20' E 037°31'0 0.4
2018-May-24 13:58N 44°19' E 037°31'0 0.5
2018-May-24 13:30N 44°19' E 037°31'2 0.5
2018-May-24 09:00N 44°18' E 037°34'0 0.5
2018-May-24 08:19N 44°19' E 037°34'0 0.5
2018-May-24 07:59N 44°19' E 037°35'0 0.5
2018-May-24 07:28N 44°19' E 037°35'0 0.4
2018-May-24 06:55N 44°19' E 037°35'0 0.5
2018-May-24 06:27N 44°19' E 037°35'0 0.4
2018-May-24 05:59N 44°19' E 037°36'0 0.3
2018-May-24 05:25N 44°19' E 037°36'0 0.2
2018-May-24 04:59N 44°19' E 037°36'0 0.2
2018-May-24 04:27N 44°19' E 037°36'0 0.2
2018-May-24 04:00N 44°19' E 037°36'0 0.2
2018-May-24 03:30N 44°19' E 037°36'0 0.2
2018-May-24 03:00N 44°19' E 037°36'0 0.2
2018-May-24 02:30N 44°19' E 037°35'0 0.2
2018-May-24 02:00N 44°19' E 037°35'0 0.2
2018-May-24 01:30N 44°19' E 037°35'1 1.3
2018-May-24 01:00N 44°20' E 037°36'4 6.9
2018-May-24 00:29N 44°23' E 037°33'  
2018-May-19 18:23N 39°48' E 025°56'0 0.1
2018-May-19 17:59N 39°48' E 025°56'0 0.1
2018-May-19 17:29N 39°48' E 025°56'  
2018-May-15 02:59N 44°21' E 013°48'4 7.9
2018-May-15 02:30N 44°24' E 013°45'4 8.1
2018-May-15 02:00N 44°28' E 013°42'4 8.2
2018-May-15 01:30N 44°31' E 013°39'5 8.4
2018-May-15 00:55N 44°35' E 013°35'3 8.3
2018-May-15 00:30N 44°38' E 013°32'4 8.3
2018-May-15 00:00N 44°42' E 013°29'4 8.7
2018-May-14 23:30N 44°45' E 013°25'4 8.7
2018-May-14 23:00N 44°49' E 013°22'4 8.5
2018-May-14 22:30N 44°52' E 013°19'4 7.9
2018-May-14 22:00N 44°56' E 013°16'4 7.5
2018-May-14 21:30N 44°59' E 013°13'  

Dump ship's entire track history